createdAt,value
2022-09-28T00:00:59.605Z,13.80
2022-09-28T00:03:31.263Z,13.80
2022-09-28T00:06:02.312Z,13.80
2022-09-28T00:08:30.196Z,13.80
2022-09-28T00:10:58.157Z,13.70
2022-09-28T00:13:25.943Z,13.80
2022-09-28T00:16:06.144Z,13.70
2022-09-28T00:18:34.501Z,13.60
2022-09-28T00:21:03.506Z,13.60
2022-09-28T00:23:31.352Z,13.70
2022-09-28T00:26:02.799Z,13.70
2022-09-28T00:28:31.398Z,13.70
2022-09-28T00:30:59.212Z,13.70
2022-09-28T00:33:31.802Z,13.60
2022-09-28T00:36:01.143Z,13.70
2022-09-28T00:38:29.414Z,13.70
2022-09-28T00:40:57.404Z,13.70
2022-09-28T00:43:26.989Z,13.70
2022-09-28T00:46:00.185Z,13.70
2022-09-28T00:48:32.955Z,13.70
2022-09-28T00:51:03.672Z,13.70
2022-09-28T00:53:35.234Z,13.70
2022-09-28T00:56:04.827Z,13.70
2022-09-28T00:58:34.586Z,13.70
2022-09-28T01:01:02.453Z,13.70
2022-09-28T01:03:31.646Z,13.80
2022-09-28T01:06:00.570Z,13.70
2022-09-28T01:08:29.079Z,13.70
2022-09-28T01:10:56.913Z,13.70
2022-09-28T01:13:25.542Z,13.70
2022-09-28T01:15:57.926Z,13.70
2022-09-28T01:18:33.507Z,13.60
2022-09-28T01:21:05.283Z,13.70
2022-09-28T01:24:00.615Z,13.70
2022-09-28T01:26:43.360Z,13.70
2022-09-28T01:29:17.029Z,13.70
2022-09-28T01:31:47.093Z,13.60
2022-09-28T01:34:34.013Z,13.60
2022-09-28T01:37:10.857Z,13.60
2022-09-28T01:39:41.417Z,13.60
2022-09-28T01:42:13.111Z,13.60
2022-09-28T01:44:42.748Z,13.60
2022-09-28T01:47:14.823Z,13.60
2022-09-28T01:49:44.550Z,13.60
2022-09-28T01:52:14.903Z,13.60
2022-09-28T01:54:43.913Z,13.70
2022-09-28T01:57:14.956Z,13.70
2022-09-28T02:00:08.666Z,13.70
2022-09-28T02:02:47.699Z,13.70
2022-09-28T02:05:20.205Z,13.70
2022-09-28T02:07:50.051Z,13.70
2022-09-28T02:10:19.976Z,13.70
2022-09-28T02:12:50.182Z,13.70
2022-09-28T02:15:20.479Z,13.80
2022-09-28T02:17:52.781Z,13.80
2022-09-28T02:20:21.945Z,13.70
2022-09-28T02:22:51.140Z,13.70
2022-09-28T02:25:24.131Z,13.70
2022-09-28T02:27:55.157Z,13.70
2022-09-28T02:30:22.936Z,13.70
2022-09-28T02:32:53.526Z,13.70
2022-09-28T02:35:21.567Z,13.70
2022-09-28T02:37:50.240Z,13.70
2022-09-28T02:40:19.657Z,13.70
2022-09-28T02:42:51.583Z,13.70
2022-09-28T02:45:28.111Z,13.70
2022-09-28T02:48:03.406Z,13.70
2022-09-28T02:50:36.752Z,13.70
2022-09-28T02:53:12.940Z,13.60
2022-09-28T02:55:49.264Z,13.70
2022-09-28T02:58:31.046Z,13.70
2022-09-28T03:01:03.959Z,13.80
2022-09-28T03:03:33.673Z,13.90
2022-09-28T03:06:03.927Z,13.90
2022-09-28T03:08:33.482Z,13.90
2022-09-28T03:11:02.800Z,13.90
2022-09-28T03:13:31.137Z,13.90
2022-09-28T03:16:10.972Z,14.00
2022-09-28T03:18:38.951Z,14.00
2022-09-28T03:21:07.045Z,14.00
2022-09-28T03:23:35.037Z,14.00
2022-09-28T03:26:02.842Z,14.00
2022-09-28T03:28:30.699Z,14.10
2022-09-28T03:30:58.496Z,14.10
2022-09-28T03:33:27.790Z,14.10
2022-09-28T03:36:01.306Z,14.20
2022-09-28T03:38:35.474Z,14.20
2022-09-28T03:41:04.818Z,14.10
2022-09-28T03:43:32.745Z,14.10
2022-09-28T03:46:01.586Z,14.00
2022-09-28T03:48:34.961Z,14.00
2022-09-28T03:51:03.837Z,14.00
2022-09-28T03:53:31.876Z,14.10
2022-09-28T03:56:03.131Z,14.10
2022-09-28T03:58:31.062Z,14.10
2022-09-28T04:01:02.534Z,14.10
2022-09-28T04:03:32.304Z,14.00
2022-09-28T04:06:00.379Z,13.90
2022-09-28T04:08:28.548Z,13.80
2022-09-28T04:11:00.659Z,13.80
2022-09-28T04:13:44.221Z,13.80
2022-09-28T04:16:55.197Z,13.80
2022-09-28T04:19:25.880Z,13.80
2022-09-28T04:21:53.774Z,13.90
2022-09-28T04:24:21.744Z,14.00
2022-09-28T04:26:49.644Z,14.00
2022-09-28T04:29:16.727Z,14.00
2022-09-28T04:31:46.011Z,13.90
2022-09-28T04:34:18.359Z,13.90
2022-09-28T04:36:48.151Z,13.90
2022-09-28T04:39:16.599Z,13.80
2022-09-28T04:41:44.805Z,13.80
2022-09-28T04:44:12.706Z,13.80
2022-09-28T04:46:40.459Z,13.80
2022-09-28T04:49:10.037Z,13.90
2022-09-28T04:51:38.182Z,13.90
2022-09-28T04:54:07.390Z,13.90
2022-09-28T04:56:36.722Z,14.00
2022-09-28T04:59:04.714Z,14.00
2022-09-28T05:01:32.572Z,14.10
2022-09-28T05:04:00.518Z,14.20
2022-09-28T05:06:31.293Z,14.20
2022-09-28T05:08:59.397Z,14.20
2022-09-28T05:11:28.921Z,14.20
2022-09-28T05:13:59.352Z,14.10
2022-09-28T05:16:33.807Z,14.20
2022-09-28T05:19:06.223Z,14.20
2022-09-28T05:21:33.987Z,14.20
2022-09-28T05:24:05.795Z,14.20
2022-09-28T05:26:34.998Z,14.10
2022-09-28T05:29:02.756Z,14.10
2022-09-28T05:31:30.657Z,14.10
2022-09-28T05:33:58.514Z,14.00
2022-09-28T05:36:27.902Z,14.00
2022-09-28T05:38:55.689Z,14.00
2022-09-28T05:41:23.441Z,14.00
2022-09-28T05:43:52.629Z,14.00
2022-09-28T05:46:21.811Z,14.10
2022-09-28T05:48:49.738Z,14.10
2022-09-28T05:51:17.793Z,14.20
2022-09-28T05:53:45.631Z,14.20
2022-09-28T05:56:13.480Z,14.20
2022-09-28T05:58:41.283Z,14.30
2022-09-28T06:01:10.579Z,14.30
2022-09-28T06:03:38.366Z,14.30
2022-09-28T06:06:06.258Z,14.30
2022-09-28T06:08:34.061Z,14.20
2022-09-28T06:11:02.247Z,14.20
2022-09-28T06:13:32.120Z,14.20
2022-09-28T06:16:00.003Z,14.20
2022-09-28T06:18:29.259Z,14.30
2022-09-28T06:20:57.084Z,14.30
2022-09-28T06:23:24.935Z,14.40
2022-09-28T06:25:52.758Z,14.40
2022-09-28T06:28:20.574Z,14.40
2022-09-28T06:30:48.499Z,14.50
2022-09-28T06:33:16.577Z,14.50
2022-09-28T06:35:45.733Z,14.60
2022-09-28T06:38:13.492Z,14.60
2022-09-28T06:40:41.395Z,14.60
2022-09-28T06:43:11.270Z,14.60
2022-09-28T06:45:39.639Z,14.50
2022-09-28T06:48:07.787Z,14.50
2022-09-28T06:50:37.651Z,14.50
2022-09-28T06:53:08.660Z,14.40
2022-09-28T06:55:39.334Z,14.50
2022-09-28T06:58:08.236Z,14.60
2022-09-28T07:00:37.054Z,14.70
2022-09-28T07:03:05.771Z,14.70
2022-09-28T07:05:36.661Z,14.80
2022-09-28T07:08:05.770Z,14.90
2022-09-28T07:10:35.000Z,14.90
2022-09-28T07:13:04.738Z,15.10
2022-09-28T07:15:33.163Z,15.20
2022-09-28T07:18:03.736Z,15.40
2022-09-28T07:20:45.831Z,15.50
2022-09-28T07:23:19.839Z,15.70
2022-09-28T07:25:50.263Z,15.90
2022-09-28T07:28:18.250Z,16.10
2022-09-28T07:30:46.198Z,16.30
2022-09-28T07:33:15.052Z,16.40
2022-09-28T07:35:43.258Z,16.40
2022-09-28T07:38:11.470Z,16.40
2022-09-28T07:40:57.001Z,16.40
2022-09-28T07:43:26.563Z,16.30
2022-09-28T07:45:55.781Z,16.20
2022-09-28T07:48:24.173Z,16.10
2022-09-28T07:50:52.545Z,16.20
2022-09-28T07:53:20.389Z,16.20
2022-09-28T07:55:52.973Z,16.40
2022-09-28T07:58:21.388Z,16.60
2022-09-28T08:00:51.466Z,16.70
2022-09-28T08:03:20.162Z,16.70
2022-09-28T08:05:48.133Z,16.70
2022-09-28T08:08:16.388Z,16.80
2022-09-28T08:10:46.964Z,16.70
2022-09-28T08:13:16.402Z,16.80
2022-09-28T08:15:44.254Z,16.90
2022-09-28T08:18:13.530Z,16.80
2022-09-28T08:20:58.848Z,16.80
2022-09-28T08:23:26.828Z,16.80
2022-09-28T08:25:54.996Z,16.70
2022-09-28T08:28:23.838Z,16.90
2022-09-28T08:30:51.946Z,17.10
2022-09-28T08:33:21.799Z,17.00
2022-09-28T08:35:55.672Z,17.00
2022-09-28T08:38:23.521Z,16.90
2022-09-28T08:40:57.133Z,16.80
2022-09-28T08:43:33.177Z,16.80
2022-09-28T08:46:01.380Z,16.80
2022-09-28T08:49:01.247Z,16.70
2022-09-28T08:51:40.324Z,16.60
2022-09-28T08:54:12.060Z,16.60
2022-09-28T08:56:42.141Z,16.70
2022-09-28T08:59:12.545Z,16.70
2022-09-28T09:01:43.476Z,16.80
2022-09-28T09:04:13.329Z,16.80
2022-09-28T09:06:49.401Z,16.90
2022-09-28T09:09:22.000Z,16.90
2022-09-28T09:11:56.306Z,16.90
2022-09-28T09:14:35.390Z,17.00
2022-09-28T09:17:08.085Z,17.00
2022-09-28T09:19:43.213Z,17.20
2022-09-28T09:22:16.807Z,17.30
2022-09-28T09:24:49.448Z,17.20
2022-09-28T09:27:27.929Z,17.20
2022-09-28T09:30:03.655Z,17.30
2022-09-28T09:32:38.179Z,17.30
2022-09-28T09:35:26.872Z,17.40
2022-09-28T09:38:06.469Z,17.30
2022-09-28T09:40:41.019Z,17.30
2022-09-28T09:43:21.205Z,17.30
2022-09-28T09:45:57.463Z,17.30
2022-09-28T09:48:26.998Z,17.30
2022-09-28T09:50:58.425Z,17.20
2022-09-28T09:53:28.812Z,17.10
2022-09-28T09:55:59.099Z,17.00
2022-09-28T09:58:30.421Z,17.00
2022-09-28T10:01:02.197Z,17.20
2022-09-28T10:03:31.284Z,17.10
2022-09-28T10:06:01.769Z,17.00
2022-09-28T10:08:30.047Z,16.80
2022-09-28T10:11:07.645Z,16.60
2022-09-28T10:13:35.434Z,16.50
2022-09-28T10:16:03.483Z,16.50
2022-09-28T10:18:31.322Z,16.50
2022-09-28T10:21:00.624Z,16.50
2022-09-28T10:23:30.391Z,16.80
2022-09-28T10:26:03.479Z,17.10
2022-09-28T10:28:34.896Z,17.50
2022-09-28T10:31:24.675Z,17.80
2022-09-28T10:33:54.228Z,18.10
2022-09-28T10:36:26.378Z,18.30
2022-09-28T10:38:55.836Z,18.20
2022-09-28T10:41:23.794Z,18.00
2022-09-28T10:44:06.009Z,17.90
2022-09-28T10:46:34.736Z,17.80
2022-09-28T10:49:04.121Z,17.80
2022-09-28T10:51:43.429Z,17.70
2022-09-28T10:54:15.732Z,17.70
2022-09-28T10:56:43.962Z,17.80
2022-09-28T10:59:24.106Z,17.90
2022-09-28T11:01:54.883Z,18.10
2022-09-28T11:07:55.401Z,18.30
2022-09-28T11:10:25.114Z,18.20
2022-09-28T11:12:53.695Z,18.10
2022-09-28T11:15:22.544Z,18.00
2022-09-28T11:17:53.184Z,17.90
2022-09-28T11:20:31.750Z,17.90
2022-09-28T11:23:02.732Z,17.90
2022-09-28T11:25:31.342Z,17.90
2022-09-28T11:28:00.855Z,18.00
2022-09-28T11:30:30.163Z,18.10
2022-09-28T11:33:04.488Z,18.30
2022-09-28T11:35:38.262Z,18.40
2022-09-28T11:38:22.171Z,18.60
2022-09-28T11:40:55.291Z,18.90
2022-09-28T11:43:29.409Z,19.10
2022-09-28T11:46:02.537Z,19.20
2022-09-28T11:48:33.663Z,19.20
2022-09-28T11:51:03.756Z,19.40
2022-09-28T11:53:39.792Z,19.70
2022-09-28T11:56:11.503Z,20.00
2022-09-28T11:58:42.239Z,20.00
2022-09-28T12:01:18.878Z,19.90
2022-09-28T12:03:49.293Z,19.80
2022-09-28T12:06:21.364Z,19.50
2022-09-28T12:08:53.680Z,19.30
2022-09-28T12:11:27.574Z,19.00
2022-09-28T12:13:57.514Z,18.50
2022-09-28T12:17:00.511Z,18.20
2022-09-28T12:19:24.300Z,18.10
2022-09-28T12:21:53.961Z,17.90
2022-09-28T12:24:25.753Z,17.70
2022-09-28T12:26:57.460Z,17.60
2022-09-28T12:29:28.659Z,17.50
2022-09-28T12:32:32.209Z,17.40
2022-09-28T12:35:13.098Z,17.30
2022-09-28T12:37:54.571Z,17.40
2022-09-28T12:40:28.709Z,17.40
2022-09-28T12:43:05.370Z,17.40
2022-09-28T12:45:53.390Z,17.50
2022-09-28T12:49:15.887Z,17.60
2022-09-28T12:51:47.115Z,17.60
2022-09-28T12:54:21.149Z,17.50
2022-09-28T12:56:54.399Z,17.50
2022-09-28T12:59:25.888Z,17.60
2022-09-28T13:02:15.919Z,17.80
2022-09-28T13:04:47.785Z,18.20
2022-09-28T13:07:20.750Z,18.50
2022-09-28T13:09:54.152Z,18.60
2022-09-28T13:12:32.437Z,18.70
2022-09-28T13:15:10.018Z,18.90
2022-09-28T13:17:44.445Z,19.00
2022-09-28T13:20:21.131Z,19.10
2022-09-28T13:22:51.652Z,19.20
2022-09-28T13:25:21.510Z,19.40
2022-09-28T13:27:52.435Z,19.60
2022-09-28T13:30:20.509Z,19.50
2022-09-28T13:32:49.862Z,19.30
2022-09-28T13:35:21.485Z,19.20
2022-09-28T13:37:57.162Z,19.10
2022-09-28T13:40:51.198Z,18.90
2022-09-28T13:43:26.036Z,18.70
2022-09-28T13:45:58.345Z,18.60
2022-09-28T13:48:30.047Z,18.70
2022-09-28T13:51:08.612Z,18.90
2022-09-28T13:53:41.978Z,19.20
2022-09-28T13:56:19.755Z,19.40
2022-09-28T13:58:51.036Z,19.60
2022-09-28T14:01:20.133Z,19.80
2022-09-28T14:03:55.743Z,20.00
2022-09-28T14:06:25.177Z,20.00
2022-09-28T14:09:25.942Z,20.00
2022-09-28T14:12:02.032Z,20.00
2022-09-28T14:14:50.548Z,19.50
2022-09-28T14:17:50.102Z,19.10
2022-09-28T14:20:18.757Z,18.80
2022-09-28T14:22:53.792Z,18.50
2022-09-28T14:25:24.073Z,18.30
2022-09-28T14:28:04.221Z,18.10
2022-09-28T14:30:46.624Z,18.10
2022-09-28T14:33:23.446Z,18.30
2022-09-28T14:35:51.933Z,18.40
2022-09-28T14:38:39.394Z,18.60
2022-09-28T14:41:12.664Z,18.80
2022-09-28T14:43:55.288Z,18.90
2022-09-28T14:46:33.717Z,18.80
2022-09-28T14:49:03.744Z,18.70
2022-09-28T14:52:02.408Z,18.50
2022-09-28T14:54:39.327Z,18.50
2022-09-28T14:57:09.338Z,18.50
2022-09-28T14:59:43.453Z,18.50
2022-09-28T15:02:17.186Z,18.60
2022-09-28T15:04:47.936Z,18.50
2022-09-28T15:07:21.275Z,18.40
2022-09-28T15:09:50.752Z,18.50
2022-09-28T15:12:19.842Z,18.50
2022-09-28T15:14:51.351Z,18.60
2022-09-28T15:17:21.787Z,18.70
2022-09-28T15:19:55.011Z,18.80
2022-09-28T15:22:23.228Z,18.80
2022-09-28T15:25:01.381Z,18.90
2022-09-28T15:27:36.523Z,19.10
2022-09-28T15:30:17.449Z,19.20
2022-09-28T15:32:45.296Z,19.20
2022-09-28T15:35:17.275Z,19.10
2022-09-28T15:37:45.774Z,19.00
2022-09-28T15:40:16.803Z,19.00
2022-09-28T15:42:45.262Z,18.90
2022-09-28T15:45:24.871Z,18.70
2022-09-28T15:47:58.609Z,18.50
2022-09-28T15:50:30.026Z,18.30
2022-09-28T15:53:00.928Z,18.10
2022-09-28T15:55:30.715Z,18.00
2022-09-28T15:58:06.858Z,17.90
2022-09-28T16:00:35.054Z,17.90
2022-09-28T16:03:05.545Z,17.80
2022-09-28T16:05:37.715Z,17.70
2022-09-28T16:08:06.397Z,17.70
2022-09-28T16:10:35.116Z,17.70
2022-09-28T16:13:16.077Z,17.70
2022-09-28T16:15:44.075Z,17.70
2022-09-28T16:18:22.170Z,17.60
2022-09-28T16:20:53.516Z,17.70
2022-09-28T16:23:26.826Z,17.60
2022-09-28T16:25:56.700Z,17.60
2022-09-28T16:28:32.430Z,17.50
2022-09-28T16:31:03.455Z,17.40
2022-09-28T16:33:32.511Z,17.40
2022-09-28T16:36:04.128Z,17.30
2022-09-28T16:38:32.270Z,17.10
2022-09-28T16:41:02.842Z,16.90
2022-09-28T16:43:31.878Z,16.80
2022-09-28T16:46:00.778Z,16.70
2022-09-28T16:48:29.992Z,16.60
2022-09-28T16:50:58.345Z,16.50
2022-09-28T16:53:45.542Z,16.40
2022-09-28T16:56:13.844Z,16.30
2022-09-28T16:58:42.411Z,16.30
2022-09-28T17:01:11.398Z,16.20
2022-09-28T17:03:42.259Z,16.20
2022-09-28T17:06:12.253Z,16.20
2022-09-28T17:08:43.265Z,16.10
2022-09-28T17:11:16.884Z,16.10
2022-09-28T17:13:48.316Z,16.10
2022-09-28T17:16:18.286Z,16.10
2022-09-28T17:18:46.958Z,16.10
2022-09-28T17:21:16.102Z,16.00
2022-09-28T17:23:46.005Z,16.00
2022-09-28T17:26:18.327Z,16.00
2022-09-28T17:28:46.232Z,16.00
2022-09-28T17:31:15.275Z,16.00
2022-09-28T17:35:06.624Z,16.00
2022-09-28T17:45:29.400Z,15.80
2022-09-28T17:48:12.736Z,15.70
2022-09-28T17:54:21.062Z,15.70
2022-09-28T18:03:25.101Z,15.50
2022-09-28T18:06:01.015Z,15.40
2022-09-28T18:08:50.596Z,15.30
2022-09-28T18:11:18.725Z,15.20
2022-09-28T18:13:47.084Z,15.10
2022-09-28T18:16:16.785Z,15.10
2022-09-28T18:18:44.894Z,15.10
2022-09-28T18:21:12.898Z,15.10
2022-09-28T18:23:40.913Z,15.20
2022-09-28T18:26:12.817Z,15.10
2022-09-28T18:28:43.906Z,15.10
2022-09-28T18:31:12.498Z,15.10
2022-09-28T18:33:41.954Z,15.20
2022-09-28T18:36:09.969Z,15.20
2022-09-28T18:38:39.802Z,15.10
2022-09-28T18:41:11.468Z,15.10
2022-09-28T18:43:41.482Z,15.10
2022-09-28T18:46:18.998Z,15.20
2022-09-28T18:48:52.052Z,15.20
2022-09-28T18:51:20.936Z,15.10
2022-09-28T18:53:58.393Z,15.20
2022-09-28T18:56:29.061Z,15.20
2022-09-28T18:59:00.300Z,15.20
2022-09-28T19:01:30.420Z,15.30
2022-09-28T19:04:04.245Z,15.30
2022-09-28T19:06:32.563Z,15.30
2022-09-28T19:09:05.431Z,15.30
2022-09-28T19:11:33.860Z,15.30
2022-09-28T19:14:06.133Z,15.20
2022-09-28T19:16:34.884Z,15.00
2022-09-28T19:19:07.084Z,14.90
2022-09-28T19:21:35.094Z,14.90
2022-09-28T19:24:03.717Z,14.80
2022-09-28T19:26:34.145Z,14.80
2022-09-28T19:29:02.968Z,14.80
2022-09-28T19:31:31.371Z,14.80
2022-09-28T19:34:02.158Z,14.90
2022-09-28T19:36:37.346Z,14.80
2022-09-28T19:39:07.407Z,14.80
2022-09-28T19:41:44.457Z,14.80
2022-09-28T19:44:15.867Z,14.70
2022-09-28T19:46:44.205Z,14.60
2022-09-28T19:49:15.309Z,14.50
2022-09-28T19:52:10.950Z,14.40
2022-09-28T19:54:36.655Z,14.40
2022-09-28T19:57:09.182Z,14.30
2022-09-28T19:59:37.633Z,14.30
2022-09-28T20:02:13.653Z,14.30
2022-09-28T20:04:43.728Z,14.30
2022-09-28T20:07:13.076Z,14.30
2022-09-28T20:09:53.368Z,14.20
2022-09-28T20:12:22.495Z,14.20
2022-09-28T20:14:52.247Z,14.10
2022-09-28T20:17:21.909Z,14.00
2022-09-28T20:19:52.481Z,13.90
2022-09-28T20:22:21.941Z,13.80
2022-09-28T20:24:50.053Z,13.70
2022-09-28T20:27:26.356Z,13.60
2022-09-28T20:29:57.719Z,13.60
2022-09-28T20:32:27.225Z,13.50
2022-09-28T20:34:57.658Z,13.40
2022-09-28T20:37:26.970Z,13.40
2022-09-28T20:39:55.341Z,13.40
2022-09-28T20:42:23.241Z,13.40
2022-09-28T20:44:54.052Z,13.30
2022-09-28T20:47:22.967Z,13.30
2022-09-28T20:49:52.464Z,13.20
2022-09-28T20:52:20.454Z,13.10
2022-09-28T20:54:52.451Z,13.10
2022-09-28T20:57:21.387Z,12.90
2022-09-28T20:59:54.366Z,12.90
2022-09-28T21:02:22.976Z,12.90
2022-09-28T21:04:51.441Z,12.80
2022-09-28T21:07:22.437Z,12.80
2022-09-28T21:09:52.199Z,12.60
2022-09-28T21:12:20.443Z,12.60
2022-09-28T21:14:48.941Z,12.50
2022-09-28T21:17:16.936Z,12.50
2022-09-28T21:19:44.878Z,12.50
2022-09-28T21:22:13.153Z,12.40
2022-09-28T21:24:41.077Z,12.40
2022-09-28T21:27:12.976Z,12.30
2022-09-28T21:29:40.940Z,12.30
2022-09-28T21:32:11.430Z,12.20
2022-09-28T21:34:39.378Z,12.20
2022-09-28T21:37:07.226Z,12.30
2022-09-28T21:39:35.492Z,12.30
2022-09-28T21:42:03.647Z,12.40
2022-09-28T21:44:32.945Z,12.40
2022-09-28T21:47:03.003Z,12.40
2022-09-28T21:49:30.959Z,12.30
2022-09-28T21:51:59.005Z,12.20
2022-09-28T21:54:28.062Z,12.30
2022-09-28T21:56:56.128Z,12.40
2022-09-28T21:59:24.391Z,12.50
2022-09-28T22:01:54.328Z,12.50
2022-09-28T22:04:22.529Z,12.60
2022-09-28T22:06:50.841Z,12.70
2022-09-28T22:09:18.913Z,12.70
2022-09-28T22:11:51.304Z,12.80
2022-09-28T22:14:19.762Z,12.90
2022-09-28T22:16:47.953Z,12.90
2022-09-28T22:19:18.819Z,13.00
2022-09-28T22:21:47.932Z,13.00
2022-09-28T22:24:31.744Z,13.10
2022-09-28T22:27:00.028Z,13.00
2022-09-28T22:29:31.233Z,12.90
2022-09-28T22:32:02.326Z,12.90
2022-09-28T22:34:31.860Z,12.90
2022-09-28T22:36:59.802Z,13.00
2022-09-28T22:39:27.687Z,13.10
2022-09-28T22:41:55.670Z,13.10
2022-09-28T22:44:26.583Z,13.10
2022-09-28T22:46:54.558Z,13.10
2022-09-28T22:49:22.743Z,13.20
2022-09-28T22:51:52.167Z,13.30
2022-09-28T22:54:23.723Z,13.30
2022-09-28T22:56:51.628Z,13.40
2022-09-28T22:59:19.497Z,13.30
2022-09-28T23:01:50.414Z,13.30
2022-09-28T23:07:12.321Z,13.30
2022-09-28T23:09:40.398Z,13.30
2022-09-28T23:12:08.243Z,13.20
2022-09-28T23:14:36.376Z,13.30
2022-09-28T23:17:04.259Z,13.20
2022-09-28T23:19:32.171Z,13.20
2022-09-28T23:22:05.854Z,13.20
2022-09-28T23:24:35.150Z,13.10
2022-09-28T23:27:03.058Z,13.10
2022-09-28T23:29:31.087Z,13.00
2022-09-28T23:31:59.066Z,13.00
2022-09-28T23:34:27.145Z,13.00
2022-09-28T23:36:56.468Z,12.90
2022-09-28T23:39:25.831Z,12.90
2022-09-28T23:41:55.160Z,12.80
2022-09-28T23:44:23.369Z,12.80
2022-09-28T23:46:51.249Z,12.80
2022-09-28T23:49:19.539Z,12.70
2022-09-28T23:51:47.952Z,12.60
2022-09-28T23:54:16.064Z,12.60
2022-09-28T23:56:57.865Z,12.50
2022-09-28T23:59:27.206Z,12.50
